createdAt,value
2022-08-24T00:01:58.342Z,5.10
2022-08-24T00:04:26.741Z,4.28
2022-08-24T00:06:57.793Z,4.93
2022-08-24T00:09:25.992Z,4.72
2022-08-24T00:11:54.109Z,4.25
2022-08-24T00:14:22.199Z,4.25
2022-08-24T00:16:50.312Z,4.18
2022-08-24T00:19:18.714Z,5.10
2022-08-24T00:21:46.795Z,4.18
2022-08-24T00:24:16.329Z,4.20
2022-08-24T00:26:45.932Z,4.28
2022-08-24T00:29:14.121Z,4.65
2022-08-24T00:31:42.449Z,3.92
2022-08-24T00:34:13.043Z,4.63
2022-08-24T00:36:41.769Z,4.30
2022-08-24T00:39:10.210Z,4.13
2022-08-24T00:41:42.860Z,3.72
2022-08-24T00:44:11.699Z,3.85
2022-08-24T00:46:46.767Z,3.75
2022-08-24T00:49:22.621Z,3.92
2022-08-24T00:51:56.261Z,4.60
2022-08-24T00:54:27.874Z,3.95
2022-08-24T00:56:59.953Z,4.13
2022-08-24T00:59:32.739Z,3.85
2022-08-24T01:02:15.685Z,4.13
2022-08-24T01:04:49.996Z,4.22
2022-08-24T01:07:18.400Z,3.97
2022-08-24T01:09:46.884Z,3.67
2022-08-24T01:12:17.394Z,3.70
2022-08-24T01:14:45.983Z,3.63
2022-08-24T01:17:36.240Z,4.07
2022-08-24T01:20:09.680Z,4.00
2022-08-24T01:22:56.980Z,4.03
2022-08-24T01:25:29.091Z,3.88
2022-08-24T01:28:01.613Z,4.60
2022-08-24T01:30:36.745Z,4.35
2022-08-24T01:33:08.132Z,3.70
2022-08-24T01:35:37.045Z,3.42
2022-08-24T01:38:08.068Z,3.63
2022-08-24T01:40:43.572Z,3.45
2022-08-24T01:43:13.549Z,3.40
2022-08-24T01:45:42.081Z,3.97
2022-08-24T01:48:11.181Z,3.47
2022-08-24T01:50:39.249Z,3.75
2022-08-24T01:53:10.484Z,4.03
2022-08-24T01:55:40.894Z,3.15
2022-08-24T01:58:09.751Z,3.70
2022-08-24T02:00:38.540Z,3.55
2022-08-24T02:03:07.246Z,3.42
2022-08-24T02:05:36.351Z,3.72
2022-08-24T02:08:04.745Z,4.22
2022-08-24T02:10:33.245Z,4.25
2022-08-24T02:13:04.627Z,4.05
2022-08-24T02:15:38.037Z,4.05
2022-08-24T02:18:06.401Z,3.72
2022-08-24T02:20:43.111Z,3.80
2022-08-24T02:23:11.171Z,3.67
2022-08-24T02:25:39.279Z,3.80
2022-08-24T02:28:08.819Z,3.95
2022-08-24T02:30:37.471Z,3.90
2022-08-24T02:33:08.079Z,3.65
2022-08-24T02:35:36.313Z,3.72
2022-08-24T02:38:04.918Z,3.90
2022-08-24T02:40:34.038Z,3.63
2022-08-24T02:43:02.690Z,3.65
2022-08-24T02:45:33.468Z,4.35
2022-08-24T02:48:01.666Z,3.63
2022-08-24T02:50:29.727Z,3.72
2022-08-24T02:52:58.310Z,4.07
2022-08-24T02:55:26.618Z,4.13
2022-08-24T02:57:54.761Z,3.65
2022-08-24T03:00:24.857Z,4.22
2022-08-24T03:02:55.823Z,4.07
2022-08-24T03:05:25.929Z,4.03
2022-08-24T03:07:54.629Z,4.20
2022-08-24T03:10:23.658Z,4.00
2022-08-24T03:12:52.404Z,3.92
2022-08-24T03:15:22.951Z,4.07
2022-08-24T03:17:52.604Z,4.05
2022-08-24T03:20:24.221Z,3.78
2022-08-24T03:22:53.129Z,4.15
2022-08-24T03:25:24.628Z,3.75
2022-08-24T03:27:53.491Z,4.00
2022-08-24T03:30:23.442Z,4.28
2022-08-24T03:32:51.930Z,4.07
2022-08-24T03:35:21.908Z,4.15
2022-08-24T03:37:52.094Z,3.92
2022-08-24T03:40:24.709Z,3.90
2022-08-24T03:42:56.244Z,4.15
2022-08-24T03:45:24.628Z,3.97
2022-08-24T03:47:53.287Z,3.40
2022-08-24T03:50:22.766Z,3.65
2022-08-24T03:52:52.680Z,3.42
2022-08-24T03:55:21.504Z,3.80
2022-08-24T03:57:49.589Z,3.58
2022-08-24T04:00:18.470Z,3.17
2022-08-24T04:02:56.514Z,3.80
2022-08-24T04:05:26.552Z,3.72
2022-08-24T04:07:56.110Z,3.33
2022-08-24T04:10:24.528Z,4.05
2022-08-24T04:12:54.938Z,3.15
2022-08-24T04:15:25.190Z,3.38
2022-08-24T04:17:53.321Z,3.08
2022-08-24T04:20:21.453Z,4.05
2022-08-24T04:22:53.591Z,3.75
2022-08-24T04:25:25.237Z,3.63
2022-08-24T04:27:53.580Z,3.35
2022-08-24T04:30:23.631Z,3.17
2022-08-24T04:33:11.149Z,3.70
2022-08-24T04:35:40.868Z,4.20
2022-08-24T04:38:09.739Z,4.50
2022-08-24T04:40:41.453Z,3.85
2022-08-24T04:43:10.485Z,4.03
2022-08-24T04:45:41.672Z,3.95
2022-08-24T04:48:10.338Z,4.18
2022-08-24T04:50:39.824Z,4.00
2022-08-24T04:53:09.028Z,4.07
2022-08-24T04:55:45.283Z,3.10
2022-08-24T04:58:14.961Z,3.28
2022-08-24T05:00:44.633Z,3.20
2022-08-24T05:03:13.810Z,4.03
2022-08-24T05:05:42.523Z,4.00
2022-08-24T05:08:11.352Z,3.97
2022-08-24T05:10:40.343Z,4.07
2022-08-24T05:13:10.219Z,3.97
2022-08-24T05:15:42.771Z,3.25
2022-08-24T05:18:13.323Z,3.15
2022-08-24T05:20:42.122Z,4.05
2022-08-24T05:23:10.742Z,3.50
2022-08-24T05:25:42.208Z,3.38
2022-08-24T05:28:12.238Z,3.17
2022-08-24T05:30:42.635Z,3.80
2022-08-24T05:33:11.456Z,3.58
2022-08-24T05:35:43.862Z,3.33
2022-08-24T05:38:13.511Z,3.20
2022-08-24T05:40:43.315Z,2.85
2022-08-24T05:43:14.462Z,3.03
2022-08-24T05:45:44.319Z,3.20
2022-08-24T05:48:13.074Z,3.13
2022-08-24T05:51:00.476Z,3.40
2022-08-24T05:53:34.304Z,3.03
2022-08-24T05:56:10.288Z,2.85
2022-08-24T05:58:40.788Z,3.08
2022-08-24T06:01:10.454Z,3.00
2022-08-24T06:03:40.284Z,3.10
2022-08-24T06:06:11.296Z,2.50
2022-08-24T06:08:41.953Z,2.97
2022-08-24T06:11:12.135Z,4.00
2022-08-24T06:13:41.810Z,2.88
2022-08-24T06:16:21.818Z,3.22
2022-08-24T06:18:52.815Z,2.90
2022-08-24T06:21:24.903Z,2.95
2022-08-24T06:23:57.137Z,3.10
2022-08-24T06:26:42.802Z,2.70
2022-08-24T06:29:14.789Z,2.33
2022-08-24T06:31:48.584Z,2.35
2022-08-24T06:34:26.113Z,2.22
2022-08-24T06:36:55.235Z,2.45
2022-08-24T06:39:25.973Z,2.15
2022-08-24T06:41:56.560Z,2.40
2022-08-24T06:44:33.115Z,2.22
2022-08-24T06:47:09.986Z,2.22
2022-08-24T06:49:38.864Z,2.30
2022-08-24T06:52:08.006Z,2.25
2022-08-24T06:54:36.245Z,2.70
2022-08-24T06:57:05.027Z,2.10
2022-08-24T06:59:35.937Z,2.17
2022-08-24T07:02:04.363Z,2.20
2022-08-24T07:04:34.973Z,2.22
2022-08-24T07:07:21.649Z,2.45
2022-08-24T07:09:49.951Z,2.22
2022-08-24T07:12:18.209Z,2.50
2022-08-24T07:14:47.822Z,2.53
2022-08-24T07:17:16.078Z,2.15
2022-08-24T07:19:44.395Z,2.60
2022-08-24T07:22:17.096Z,3.33
2022-08-24T07:24:46.583Z,2.42
2022-08-24T07:27:15.703Z,2.63
2022-08-24T07:29:52.775Z,2.10
2022-08-24T07:32:26.413Z,2.72
2022-08-24T07:34:56.722Z,2.78
2022-08-24T07:37:24.996Z,2.45
2022-08-24T07:39:53.432Z,2.40
2022-08-24T07:42:29.723Z,2.13
2022-08-24T07:45:01.252Z,2.00
2022-08-24T07:47:43.079Z,2.35
2022-08-24T07:50:28.041Z,2.38
2022-08-24T07:52:56.319Z,2.58
2022-08-24T07:55:24.692Z,2.22
2022-08-24T07:57:53.396Z,2.22
2022-08-24T08:00:22.600Z,2.55
2022-08-24T08:02:57.578Z,2.17
2022-08-24T08:05:26.226Z,2.17
2022-08-24T08:07:56.927Z,1.92
2022-08-24T08:10:25.694Z,2.38
2022-08-24T08:12:55.176Z,2.38
2022-08-24T08:15:23.711Z,2.10
2022-08-24T08:18:01.833Z,2.10
2022-08-24T08:20:30.258Z,2.13
2022-08-24T08:23:16.305Z,1.85
2022-08-24T08:26:03.305Z,2.03
2022-08-24T08:28:51.150Z,2.63
2022-08-24T08:31:19.772Z,2.10
2022-08-24T08:33:49.831Z,2.22
2022-08-24T08:36:21.666Z,1.80
2022-08-24T08:38:51.729Z,2.05
2022-08-24T08:41:58.666Z,1.80
2022-08-24T08:44:45.276Z,1.67
2022-08-24T08:47:33.650Z,1.80
2022-08-24T08:50:10.850Z,1.52
2022-08-24T08:53:12.376Z,1.55
2022-08-24T08:55:47.010Z,2.08
2022-08-24T08:58:57.154Z,1.80
2022-08-24T09:01:46.969Z,2.00
2022-08-24T09:05:04.212Z,2.08
2022-08-24T09:07:48.487Z,1.88
2022-08-24T09:10:32.745Z,1.67
2022-08-24T09:13:15.173Z,2.08
2022-08-24T09:16:12.526Z,1.75
2022-08-24T09:18:56.233Z,1.77
2022-08-24T09:21:47.063Z,1.77
2022-08-24T09:24:34.405Z,1.70
2022-08-24T09:27:21.447Z,1.90
2022-08-24T09:30:03.379Z,2.03
2022-08-24T09:32:54.936Z,1.95
2022-08-24T09:35:33.330Z,2.13
2022-08-24T09:38:08.331Z,2.05
2022-08-24T09:40:52.955Z,2.20
2022-08-24T09:43:51.251Z,2.10
2022-08-24T09:46:49.238Z,2.30
2022-08-24T09:49:48.576Z,2.10
2022-08-24T09:52:51.838Z,2.22
2022-08-24T09:55:39.181Z,2.30
2022-08-24T09:58:19.532Z,2.25
2022-08-24T10:00:51.896Z,2.30
2022-08-24T10:03:36.183Z,2.45
2022-08-24T10:06:26.557Z,1.90
2022-08-24T10:09:29.354Z,2.38
2022-08-24T10:12:05.030Z,2.33
2022-08-24T10:14:49.270Z,2.20
2022-08-24T10:17:26.961Z,2.28
2022-08-24T10:20:09.008Z,2.47
2022-08-24T10:23:25.233Z,2.63
2022-08-24T10:26:01.575Z,2.20
2022-08-24T10:28:44.038Z,2.05
2022-08-24T10:31:16.299Z,2.45
2022-08-24T10:34:05.905Z,2.40
2022-08-24T10:36:49.531Z,2.78
2022-08-24T10:39:42.355Z,2.78
2022-08-24T10:42:52.327Z,2.30
2022-08-24T10:45:57.755Z,2.90
2022-08-24T10:49:04.645Z,2.53
2022-08-24T10:51:46.472Z,2.75
2022-08-24T10:54:15.037Z,2.65
2022-08-24T10:56:53.048Z,2.25
2022-08-24T10:59:26.083Z,2.50
2022-08-24T11:02:11.905Z,2.35
2022-08-24T11:04:44.351Z,2.25
2022-08-24T11:07:19.500Z,2.22
2022-08-24T11:09:53.277Z,2.30
2022-08-24T11:12:30.709Z,2.50
2022-08-24T11:15:01.798Z,2.70
2022-08-24T11:17:31.394Z,1.90
2022-08-24T11:20:00.789Z,2.42
2022-08-24T11:22:33.538Z,2.33
2022-08-24T11:25:04.902Z,2.03
2022-08-24T11:27:36.361Z,2.28
2022-08-24T11:30:13.336Z,2.17
2022-08-24T11:32:45.380Z,2.53
2022-08-24T11:35:22.240Z,2.58
2022-08-24T11:37:52.004Z,2.72
2022-08-24T11:40:23.483Z,2.47
2022-08-24T11:43:14.233Z,2.63
2022-08-24T11:45:49.181Z,2.35
2022-08-24T11:48:29.851Z,2.63
2022-08-24T11:51:04.594Z,2.00
2022-08-24T11:53:44.464Z,2.92
2022-08-24T11:56:25.738Z,2.47
2022-08-24T11:59:00.560Z,2.08
2022-08-24T12:01:36.076Z,2.28
2022-08-24T12:04:27.006Z,2.65
2022-08-24T12:07:05.317Z,1.95
2022-08-24T12:09:55.552Z,2.22
2022-08-24T12:12:28.520Z,2.40
2022-08-24T12:15:03.540Z,2.40
2022-08-24T12:17:37.461Z,2.25
2022-08-24T12:20:15.512Z,2.47
2022-08-24T12:22:45.587Z,1.67
2022-08-24T12:25:28.189Z,2.65
2022-08-24T12:27:58.422Z,1.95
2022-08-24T12:30:28.483Z,1.95
2022-08-24T12:33:00.362Z,2.58
2022-08-24T12:35:32.189Z,2.60
2022-08-24T12:38:08.474Z,2.60
2022-08-24T12:40:41.620Z,2.60
2022-08-24T12:43:14.778Z,2.55
2022-08-24T12:45:42.842Z,2.80
2022-08-24T12:48:16.618Z,2.47
2022-08-24T12:50:58.939Z,2.33
2022-08-24T12:53:47.565Z,1.55
2022-08-24T12:56:38.595Z,2.38
2022-08-24T12:59:14.392Z,2.30
2022-08-24T13:01:47.381Z,2.22
2022-08-24T13:04:34.146Z,2.20
2022-08-24T13:07:06.812Z,2.30
2022-08-24T13:09:39.661Z,2.03
2022-08-24T13:12:45.142Z,2.33
2022-08-24T13:15:48.734Z,2.70
2022-08-24T13:18:50.590Z,2.30
2022-08-24T13:21:41.290Z,2.38
2022-08-24T13:24:44.084Z,2.25
2022-08-24T13:27:49.202Z,2.47
2022-08-24T13:30:28.435Z,2.17
2022-08-24T13:33:05.212Z,2.50
2022-08-24T13:35:54.577Z,2.20
2022-08-24T13:38:52.112Z,2.20
2022-08-24T13:41:43.003Z,2.63
2022-08-24T13:44:21.219Z,2.25
2022-08-24T13:46:56.956Z,2.15
2022-08-24T13:49:46.600Z,1.85
2022-08-24T13:52:24.066Z,2.78
2022-08-24T13:55:18.512Z,2.22
2022-08-24T13:57:54.378Z,2.33
2022-08-24T14:00:43.994Z,2.00
2022-08-24T14:03:52.131Z,2.33
2022-08-24T14:06:29.322Z,2.63
2022-08-24T14:09:19.239Z,1.85
2022-08-24T14:12:17.809Z,2.30
2022-08-24T14:15:01.409Z,2.30
2022-08-24T14:18:03.586Z,2.10
2022-08-24T14:20:52.358Z,2.17
2022-08-24T14:23:44.691Z,2.28
2022-08-24T14:26:52.990Z,2.13
2022-08-24T14:29:34.393Z,1.90
2022-08-24T14:33:03.076Z,2.25
2022-08-24T14:35:38.915Z,1.80
2022-08-24T14:38:46.649Z,2.20
2022-08-24T14:41:49.663Z,2.20
2022-08-24T14:44:50.518Z,1.65
2022-08-24T14:47:30.426Z,1.75
2022-08-24T14:50:12.938Z,2.08
2022-08-24T14:52:57.537Z,1.95
2022-08-24T14:55:35.351Z,1.90
2022-08-24T14:58:19.321Z,2.00
2022-08-24T15:01:29.679Z,1.60
2022-08-24T15:04:10.860Z,2.20
2022-08-24T15:06:47.837Z,1.88
2022-08-24T15:09:22.229Z,2.00
2022-08-24T15:11:52.437Z,1.80
2022-08-24T15:14:41.630Z,2.10
2022-08-24T15:17:15.233Z,1.42
2022-08-24T15:19:54.296Z,2.03
2022-08-24T15:22:40.897Z,1.90
2022-08-24T15:25:19.748Z,2.13
2022-08-24T15:27:54.946Z,2.10
2022-08-24T15:30:27.184Z,2.22
2022-08-24T15:33:05.772Z,2.08
2022-08-24T15:35:36.099Z,2.08
2022-08-24T15:38:20.276Z,1.92
2022-08-24T15:40:50.943Z,2.25
2022-08-24T15:43:19.810Z,1.80
2022-08-24T15:45:51.085Z,2.28
2022-08-24T15:48:25.739Z,1.95
2022-08-24T15:50:56.106Z,1.90
2022-08-24T15:53:36.624Z,2.30
2022-08-24T15:56:29.798Z,1.73
2022-08-24T15:59:08.320Z,2.00
2022-08-24T16:01:54.121Z,1.80
2022-08-24T16:04:46.483Z,2.10
2022-08-24T16:07:25.574Z,2.13
2022-08-24T16:10:07.167Z,2.00
2022-08-24T16:12:35.880Z,2.22
2022-08-24T16:15:14.560Z,1.73
2022-08-24T16:17:51.114Z,1.88
2022-08-24T16:20:32.801Z,1.80
2022-08-24T16:23:04.696Z,1.90
2022-08-24T16:25:39.825Z,2.38
2022-08-24T16:28:13.137Z,2.03
2022-08-24T16:30:49.813Z,1.88
2022-08-24T16:33:44.325Z,2.20
2022-08-24T16:36:15.541Z,1.95
2022-08-24T16:38:47.549Z,1.58
2022-08-24T16:41:19.510Z,2.00
2022-08-24T16:43:47.955Z,2.00
2022-08-24T16:46:20.839Z,2.55
2022-08-24T16:48:48.960Z,1.92
2022-08-24T16:51:17.153Z,2.25
2022-08-24T16:53:45.195Z,1.80
2022-08-24T16:56:16.520Z,2.60
2022-08-24T16:58:48.281Z,2.05
2022-08-24T17:01:17.281Z,2.35
2022-08-24T17:03:45.393Z,1.98
2022-08-24T17:06:14.709Z,1.98
2022-08-24T17:08:42.896Z,2.13
2022-08-24T17:11:11.181Z,1.90
2022-08-24T17:13:49.740Z,2.30
2022-08-24T17:16:21.351Z,1.83
2022-08-24T17:18:49.853Z,2.22
2022-08-24T17:21:18.129Z,2.10
2022-08-24T17:23:46.196Z,2.22
2022-08-24T17:26:20.892Z,2.10
2022-08-24T17:28:51.871Z,2.17
2022-08-24T17:31:24.523Z,2.17
2022-08-24T17:33:53.366Z,2.20
2022-08-24T17:36:24.851Z,2.22
2022-08-24T17:38:56.145Z,2.15
2022-08-24T17:41:26.063Z,2.05
2022-08-24T17:43:55.602Z,2.20
2022-08-24T17:46:25.020Z,2.65
2022-08-24T17:48:53.091Z,2.00
2022-08-24T17:51:21.454Z,2.00
2022-08-24T17:53:49.485Z,1.92
2022-08-24T17:56:18.058Z,2.15
2022-08-24T17:59:04.071Z,2.05
2022-08-24T18:01:33.947Z,2.08
2022-08-24T18:04:02.328Z,1.85
2022-08-24T18:06:30.580Z,2.45
2022-08-24T18:09:02.576Z,2.25
2022-08-24T18:11:30.925Z,2.33
2022-08-24T18:14:01.479Z,2.30
2022-08-24T18:16:29.732Z,2.50
2022-08-24T18:18:59.674Z,2.75
2022-08-24T18:21:27.802Z,2.60
2022-08-24T18:23:56.065Z,2.47
2022-08-24T18:26:28.393Z,2.72
2022-08-24T18:29:00.360Z,2.15
2022-08-24T18:31:30.417Z,2.05
2022-08-24T18:33:59.862Z,2.25
2022-08-24T18:36:28.563Z,2.47
2022-08-24T18:38:56.960Z,2.17
2022-08-24T18:41:28.316Z,2.25
2022-08-24T18:43:56.354Z,2.40
2022-08-24T18:46:24.909Z,2.58
2022-08-24T18:48:53.418Z,2.30
2022-08-24T18:51:24.129Z,2.15
2022-08-24T18:54:01.345Z,2.42
2022-08-24T18:56:29.383Z,2.35
2022-08-24T18:58:58.109Z,2.17
2022-08-24T19:01:27.066Z,1.98
2022-08-24T19:03:55.791Z,2.17
2022-08-24T19:06:26.118Z,2.30
2022-08-24T19:08:54.249Z,2.10
2022-08-24T19:11:24.788Z,2.20
2022-08-24T19:13:52.853Z,2.40
2022-08-24T19:16:21.239Z,2.35
2022-08-24T19:18:50.957Z,1.98
2022-08-24T19:21:20.468Z,2.20
2022-08-24T19:23:49.937Z,2.42
2022-08-24T19:26:18.489Z,2.28
2022-08-24T19:28:46.514Z,2.17
2022-08-24T19:31:15.161Z,2.20
2022-08-24T19:33:46.709Z,2.17
2022-08-24T19:36:18.299Z,1.92
2022-08-24T19:38:47.472Z,2.00
2022-08-24T19:41:18.819Z,2.35
2022-08-24T19:44:09.292Z,2.25
2022-08-24T19:46:38.487Z,2.42
2022-08-24T19:49:07.554Z,2.30
2022-08-24T19:51:36.558Z,2.22
2022-08-24T19:54:05.100Z,2.15
2022-08-24T19:56:34.566Z,2.50
2022-08-24T19:59:07.464Z,2.20
2022-08-24T20:01:37.612Z,2.08
2022-08-24T20:04:07.688Z,1.90
2022-08-24T20:06:38.035Z,2.03
2022-08-24T20:09:06.733Z,2.30
2022-08-24T20:11:36.875Z,2.03
2022-08-24T20:14:04.995Z,2.88
2022-08-24T20:16:36.965Z,1.90
2022-08-24T20:19:05.854Z,2.33
2022-08-24T20:21:34.291Z,2.50
2022-08-24T20:24:02.937Z,2.47
2022-08-24T20:26:35.632Z,2.40
2022-08-24T20:29:05.141Z,2.55
2022-08-24T20:31:33.503Z,2.13
2022-08-24T20:34:01.926Z,2.70
2022-08-24T20:36:33.841Z,2.47
2022-08-24T20:39:03.208Z,3.00
2022-08-24T20:41:32.575Z,2.30
2022-08-24T20:44:01.822Z,2.72
2022-08-24T20:46:31.604Z,2.65
2022-08-24T20:49:01.434Z,3.92
2022-08-24T20:51:29.993Z,3.00
2022-08-24T20:53:58.020Z,2.67
2022-08-24T20:56:31.106Z,2.85
2022-08-24T20:59:02.041Z,2.78
2022-08-24T21:01:31.905Z,2.50
2022-08-24T21:04:04.746Z,2.67
2022-08-24T21:06:35.060Z,2.60
2022-08-24T21:09:04.992Z,2.50
2022-08-24T21:11:33.357Z,2.22
2022-08-24T21:14:01.618Z,2.45
2022-08-24T21:16:31.420Z,2.60
2022-08-24T21:18:59.462Z,3.25
2022-08-24T21:21:27.898Z,2.28
2022-08-24T21:23:55.945Z,3.25
2022-08-24T21:26:27.040Z,2.40
2022-08-24T21:28:58.058Z,2.72
2022-08-24T21:31:26.299Z,2.50
2022-08-24T21:34:13.386Z,2.65
2022-08-24T21:36:41.891Z,2.45
2022-08-24T21:39:11.041Z,2.65
2022-08-24T21:41:40.550Z,2.47
2022-08-24T21:44:08.659Z,2.65
2022-08-24T21:46:39.245Z,2.65
2022-08-24T21:49:11.963Z,2.70
2022-08-24T21:51:40.723Z,2.33
2022-08-24T21:54:09.437Z,2.80
2022-08-24T21:56:37.564Z,2.45
2022-08-24T21:59:05.848Z,3.03
2022-08-24T22:01:34.133Z,2.75
2022-08-24T22:04:02.931Z,2.92
2022-08-24T22:06:33.461Z,3.42
2022-08-24T22:09:01.978Z,3.00
2022-08-24T22:11:31.412Z,3.20
2022-08-24T22:14:00.007Z,2.75
2022-08-24T22:16:28.433Z,3.22
2022-08-24T22:18:56.662Z,3.10
2022-08-24T22:21:29.341Z,2.90
2022-08-24T22:23:59.868Z,3.42
2022-08-24T22:26:30.212Z,3.47
2022-08-24T22:28:59.057Z,2.58
2022-08-24T22:31:29.716Z,3.30
2022-08-24T22:34:00.088Z,2.67
2022-08-24T22:36:29.585Z,2.65
2022-08-24T22:39:00.453Z,2.58
2022-08-24T22:41:30.454Z,3.53
2022-08-24T22:44:18.662Z,3.05
2022-08-24T22:46:47.328Z,2.83
2022-08-24T22:49:15.610Z,3.22
2022-08-24T22:51:43.732Z,2.83
2022-08-24T22:54:13.373Z,3.35
2022-08-24T22:56:44.985Z,3.50
2022-08-24T22:59:17.477Z,2.90
2022-08-24T23:01:48.704Z,3.17
2022-08-24T23:04:21.117Z,2.90
2022-08-24T23:06:49.262Z,3.40
2022-08-24T23:09:18.994Z,3.13
2022-08-24T23:11:47.357Z,3.85
2022-08-24T23:14:16.758Z,3.67
2022-08-24T23:16:47.807Z,3.70
2022-08-24T23:19:34.797Z,3.38
2022-08-24T23:22:02.995Z,3.55
2022-08-24T23:24:32.456Z,3.75
2022-08-24T23:27:01.647Z,3.47
2022-08-24T23:29:30.301Z,3.72
2022-08-24T23:31:58.692Z,3.55
2022-08-24T23:34:27.187Z,3.65
2022-08-24T23:36:55.341Z,3.35
2022-08-24T23:39:24.172Z,3.17
2022-08-24T23:41:53.860Z,3.13
2022-08-24T23:44:25.814Z,3.30
2022-08-24T23:46:54.722Z,3.55
2022-08-24T23:49:24.330Z,3.60
2022-08-24T23:51:53.482Z,3.60
2022-08-24T23:54:22.359Z,3.75
2022-08-24T23:56:52.569Z,3.35
2022-08-24T23:59:25.066Z,3.53
